Preview of NWS' New Version of Forecast
This preview is not operational and should not be used for support decisions.

Terminal Aerodrome Forecast (TAF)

Issued by National Weather Service (NWS)

                            
000
FTUS42 KKEY 201616 AAD
TAFMTH
TAF AMD
KMTH 201616Z 2016/2112 31014G22KT P6SM FEW015 SCT025 BKN060
     FM202200 33014G24KT P6SM BKN025
     FM210900 36012G20KT P6SM FEW030=